Alford, Massachusetts
Current Conditions -  °F | °C
As of 11:54 PM on Tuesday 21 Oct 2014 (Local Time) from KPSF Reporting Station
Overcast Overcast  
Wind Chill: 50°   Ceiling: 1200
Heat Index: 50°   Visibility: 10mi
Dew Point: 48°   Wind: 7mph
Humidity: 93%   Direction: 40°NE
Pressure: 29.98"   Gusts: NA
Location:  42.1779°N, 73.3332°W
Report Text: KPSF 220354Z AUTO 04006KT 10SM OVC012 10/09 A2998 RMK AO2 SLP145 T01000089
Loading
Personal Weather Stations






























Interactive Weather Map
Tropical Storm Tracking
New forecast layout! Learn more

10-Day Weather Forecast

Advertisements
Track Severe Weather on mobile